sensor_id;sensor_type;location;lat;lon;timestamp;P1;durP1;ratioP1;P2;durP2;ratioP2
17177;SDS011;8704;52.006;4.374;2023-02-28T00:01:26;13.85;;;12.65;;
17177;SDS011;8704;52.006;4.374;2023-02-28T00:03:56;15.60;;;14.45;;
17177;SDS011;8704;52.006;4.374;2023-02-28T00:06:24;15.63;;;14.43;;
17177;SDS011;8704;52.006;4.374;2023-02-28T00:08:53;16.75;;;15.07;;
17177;SDS011;8704;52.006;4.374;2023-02-28T00:11:21;16.98;;;15.80;;
17177;SDS011;8704;52.006;4.374;2023-02-28T00:13:49;17.48;;;16.05;;
17177;SDS011;8704;52.006;4.374;2023-02-28T00:16:18;17.15;;;15.75;;
17177;SDS011;8704;52.006;4.374;2023-02-28T00:18:48;16.52;;;15.32;;
17177;SDS011;8704;52.006;4.374;2023-02-28T00:21:18;17.05;;;15.65;;
17177;SDS011;8704;52.006;4.374;2023-02-28T00:23:47;17.45;;;16.08;;
17177;SDS011;8704;52.006;4.374;2023-02-28T00:26:16;16.77;;;15.50;;
17177;SDS011;8704;52.006;4.374;2023-02-28T00:28:47;15.50;;;14.18;;
17177;SDS011;8704;52.006;4.374;2023-02-28T00:31:15;16.40;;;15.10;;
17177;SDS011;8704;52.006;4.374;2023-02-28T00:33:43;16.63;;;15.23;;
17177;SDS011;8704;52.006;4.374;2023-02-28T00:36:11;16.40;;;14.93;;
17177;SDS011;8704;52.006;4.374;2023-02-28T00:38:40;16.83;;;15.48;;
17177;SDS011;8704;52.006;4.374;2023-02-28T00:41:09;12.30;;;11.20;;
17177;SDS011;8704;52.006;4.374;2023-02-28T00:43:37;14.65;;;13.25;;
17177;SDS011;8704;52.006;4.374;2023-02-28T00:46:06;11.57;;;10.30;;
17177;SDS011;8704;52.006;4.374;2023-02-28T00:48:35;12.10;;;10.88;;
17177;SDS011;8704;52.006;4.374;2023-02-28T00:51:03;12.73;;;11.38;;
17177;SDS011;8704;52.006;4.374;2023-02-28T00:53:31;11.38;;;10.45;;
17177;SDS011;8704;52.006;4.374;2023-02-28T00:56:01;12.63;;;11.05;;
17177;SDS011;8704;52.006;4.374;2023-02-28T00:58:29;12.57;;;11.38;;
17177;SDS011;8704;52.006;4.374;2023-02-28T01:00:57;11.68;;;10.43;;
17177;SDS011;8704;52.006;4.374;2023-02-28T01:03:26;11.77;;;10.73;;
17177;SDS011;8704;52.006;4.374;2023-02-28T01:05:54;13.02;;;9.82;;
17177;SDS011;8704;52.006;4.374;2023-02-28T01:08:22;10.38;;;9.27;;
17177;SDS011;8704;52.006;4.374;2023-02-28T01:10:50;10.82;;;9.25;;
17177;SDS011;8704;52.006;4.374;2023-02-28T01:13:19;11.30;;;8.80;;
17177;SDS011;8704;52.006;4.374;2023-02-28T01:15:50;9.35;;;8.45;;
17177;SDS011;8704;52.006;4.374;2023-02-28T01:18:20;10.50;;;8.35;;
17177;SDS011;8704;52.006;4.374;2023-02-28T01:20:48;11.65;;;9.07;;
17177;SDS011;8704;52.006;4.374;2023-02-28T01:23:18;9.48;;;8.52;;
17177;SDS011;8704;52.006;4.374;2023-02-28T01:25:46;9.80;;;8.77;;
17177;SDS011;8704;52.006;4.374;2023-02-28T01:28:14;9.68;;;8.65;;
17177;SDS011;8704;52.006;4.374;2023-02-28T01:30:46;9.98;;;8.30;;
17177;SDS011;8704;52.006;4.374;2023-02-28T01:33:15;9.05;;;8.13;;
17177;SDS011;8704;52.006;4.374;2023-02-28T01:35:43;9.10;;;8.30;;
17177;SDS011;8704;52.006;4.374;2023-02-28T01:38:11;9.30;;;8.23;;
17177;SDS011;8704;52.006;4.374;2023-02-28T01:40:48;9.05;;;7.55;;
17177;SDS011;8704;52.006;4.374;2023-02-28T01:43:20;8.35;;;7.55;;
17177;SDS011;8704;52.006;4.374;2023-02-28T01:45:52;8.15;;;6.82;;
17177;SDS011;8704;52.006;4.374;2023-02-28T01:48:22;9.95;;;7.22;;
17177;SDS011;8704;52.006;4.374;2023-02-28T01:50:54;10.48;;;7.18;;
17177;SDS011;8704;52.006;4.374;2023-02-28T01:53:29;8.20;;;6.57;;
17177;SDS011;8704;52.006;4.374;2023-02-28T01:56:01;10.10;;;6.38;;
17177;SDS011;8704;52.006;4.374;2023-02-28T02:01:03;8.32;;;7.45;;
17177;SDS011;8704;52.006;4.374;2023-02-28T02:03:31;7.57;;;6.78;;
17177;SDS011;8704;52.006;4.374;2023-02-28T02:05:59;7.22;;;6.53;;
17177;SDS011;8704;52.006;4.374;2023-02-28T02:08:29;10.75;;;7.07;;
17177;SDS011;8704;52.006;4.374;2023-02-28T02:10:57;8.32;;;7.15;;
17177;SDS011;8704;52.006;4.374;2023-02-28T02:13:30;10.80;;;6.55;;
17177;SDS011;8704;52.006;4.374;2023-02-28T02:16:14;7.53;;;6.22;;
17177;SDS011;8704;52.006;4.374;2023-02-28T02:18:51;10.90;;;6.90;;
17177;SDS011;8704;52.006;4.374;2023-02-28T02:21:44;9.70;;;7.40;;
17177;SDS011;8704;52.006;4.374;2023-02-28T02:27:48;8.32;;;7.30;;
17177;SDS011;8704;52.006;4.374;2023-02-28T02:33:38;8.05;;;7.30;;
17177;SDS011;8704;52.006;4.374;2023-02-28T02:36:30;9.45;;;7.20;;
17177;SDS011;8704;52.006;4.374;2023-02-28T02:39:04;7.90;;;7.10;;
17177;SDS011;8704;52.006;4.374;2023-02-28T02:41:38;9.07;;;8.15;;
17177;SDS011;8704;52.006;4.374;2023-02-28T02:44:15;9.35;;;8.25;;
17177;SDS011;8704;52.006;4.374;2023-02-28T02:46:49;11.15;;;8.90;;
17177;SDS011;8704;52.006;4.374;2023-02-28T02:49:22;9.65;;;8.63;;
17177;SDS011;8704;52.006;4.374;2023-02-28T02:51:55;10.30;;;8.95;;
17177;SDS011;8704;52.006;4.374;2023-02-28T02:54:27;11.57;;;9.73;;
17177;SDS011;8704;52.006;4.374;2023-02-28T02:56:58;11.17;;;9.73;;
17177;SDS011;8704;52.006;4.374;2023-02-28T02:59:30;11.10;;;9.02;;
17177;SDS011;8704;52.006;4.374;2023-02-28T03:02:01;9.80;;;8.80;;
17177;SDS011;8704;52.006;4.374;2023-02-28T03:04:32;12.27;;;11.07;;
17177;SDS011;8704;52.006;4.374;2023-02-28T03:07:06;11.32;;;10.20;;
17177;SDS011;8704;52.006;4.374;2023-02-28T03:09:35;12.60;;;9.57;;
17177;SDS011;8704;52.006;4.374;2023-02-28T03:12:03;12.40;;;9.77;;
17177;SDS011;8704;52.006;4.374;2023-02-28T03:14:45;10.70;;;9.68;;
17177;SDS011;8704;52.006;4.374;2023-02-28T03:17:31;10.32;;;9.27;;
17177;SDS011;8704;52.006;4.374;2023-02-28T03:20:17;10.48;;;9.48;;
17177;SDS011;8704;52.006;4.374;2023-02-28T03:22:59;12.60;;;9.02;;
17177;SDS011;8704;52.006;4.374;2023-02-28T03:25:36;12.27;;;9.70;;
17177;SDS011;8704;52.006;4.374;2023-02-28T03:28:12;11.25;;;10.20;;
17177;SDS011;8704;52.006;4.374;2023-02-28T03:30:45;10.60;;;9.60;;
17177;SDS011;8704;52.006;4.374;2023-02-28T03:33:20;12.15;;;9.40;;
17177;SDS011;8704;52.006;4.374;2023-02-28T03:35:52;11.90;;;10.68;;
17177;SDS011;8704;52.006;4.374;2023-02-28T03:38:26;10.53;;;9.50;;
17177;SDS011;8704;52.006;4.374;2023-02-28T03:41:01;14.65;;;9.90;;
17177;SDS011;8704;52.006;4.374;2023-02-28T03:43:33;11.18;;;9.10;;
17177;SDS011;8704;52.006;4.374;2023-02-28T03:46:05;13.50;;;9.57;;
17177;SDS011;8704;52.006;4.374;2023-02-28T03:48:38;10.38;;;9.30;;
17177;SDS011;8704;52.006;4.374;2023-02-28T03:51:09;12.80;;;11.43;;
17177;SDS011;8704;52.006;4.374;2023-02-28T03:53:44;13.13;;;11.38;;
17177;SDS011;8704;52.006;4.374;2023-02-28T03:56:16;15.90;;;11.18;;
17177;SDS011;8704;52.006;4.374;2023-02-28T03:58:47;14.57;;;10.82;;
17177;SDS011;8704;52.006;4.374;2023-02-28T04:01:22;13.25;;;12.02;;
17177;SDS011;8704;52.006;4.374;2023-02-28T04:03:55;14.63;;;13.15;;
17177;SDS011;8704;52.006;4.374;2023-02-28T04:06:25;11.85;;;10.60;;
17177;SDS011;8704;52.006;4.374;2023-02-28T04:08:54;12.38;;;11.10;;
17177;SDS011;8704;52.006;4.374;2023-02-28T04:11:23;11.70;;;10.55;;
17177;SDS011;8704;52.006;4.374;2023-02-28T04:13:57;16.92;;;11.60;;
17177;SDS011;8704;52.006;4.374;2023-02-28T04:16:25;12.38;;;11.23;;
17177;SDS011;8704;52.006;4.374;2023-02-28T04:19:01;11.23;;;9.90;;
17177;SDS011;8704;52.006;4.374;2023-02-28T04:21:32;13.85;;;12.30;;
17177;SDS011;8704;52.006;4.374;2023-02-28T04:24:02;13.98;;;11.88;;
17177;SDS011;8704;52.006;4.374;2023-02-28T04:26:31;14.07;;;11.88;;
17177;SDS011;8704;52.006;4.374;2023-02-28T04:29:01;16.17;;;12.82;;
17177;SDS011;8704;52.006;4.374;2023-02-28T04:31:30;12.82;;;11.55;;
17177;SDS011;8704;52.006;4.374;2023-02-28T04:33:59;13.95;;;11.32;;
17177;SDS011;8704;52.006;4.374;2023-02-28T04:36:27;14.57;;;11.68;;
17177;SDS011;8704;52.006;4.374;2023-02-28T04:38:56;12.43;;;11.00;;
17177;SDS011;8704;52.006;4.374;2023-02-28T04:41:25;12.60;;;11.30;;
17177;SDS011;8704;52.006;4.374;2023-02-28T04:43:57;13.27;;;11.88;;
17177;SDS011;8704;52.006;4.374;2023-02-28T04:46:26;14.75;;;13.25;;
17177;SDS011;8704;52.006;4.374;2023-02-28T04:48:54;14.70;;;13.20;;
17177;SDS011;8704;52.006;4.374;2023-02-28T04:51:22;17.30;;;13.32;;
17177;SDS011;8704;52.006;4.374;2023-02-28T04:53:50;13.73;;;12.32;;
17177;SDS011;8704;52.006;4.374;2023-02-28T04:56:18;16.83;;;13.02;;
17177;SDS011;8704;52.006;4.374;2023-02-28T04:58:48;14.25;;;12.95;;
17177;SDS011;8704;52.006;4.374;2023-02-28T05:01:22;15.45;;;13.90;;
17177;SDS011;8704;52.006;4.374;2023-02-28T05:03:52;16.75;;;15.10;;
17177;SDS011;8704;52.006;4.374;2023-02-28T05:06:22;16.50;;;15.00;;
17177;SDS011;8704;52.006;4.374;2023-02-28T05:08:51;15.63;;;14.15;;
17177;SDS011;8704;52.006;4.374;2023-02-28T05:11:20;14.65;;;12.48;;
17177;SDS011;8704;52.006;4.374;2023-02-28T05:13:52;15.80;;;14.27;;
17177;SDS011;8704;52.006;4.374;2023-02-28T05:16:21;16.17;;;14.68;;
17177;SDS011;8704;52.006;4.374;2023-02-28T05:18:49;16.50;;;15.00;;
17177;SDS011;8704;52.006;4.374;2023-02-28T05:21:24;16.80;;;14.90;;
17177;SDS011;8704;52.006;4.374;2023-02-28T05:23:55;15.65;;;13.18;;
17177;SDS011;8704;52.006;4.374;2023-02-28T05:26:25;15.10;;;13.50;;
17177;SDS011;8704;52.006;4.374;2023-02-28T05:28:55;15.73;;;14.27;;
17177;SDS011;8704;52.006;4.374;2023-02-28T05:31:23;17.92;;;13.52;;
17177;SDS011;8704;52.006;4.374;2023-02-28T05:33:52;15.32;;;11.93;;
17177;SDS011;8704;52.006;4.374;2023-02-28T05:36:20;15.30;;;11.20;;
17177;SDS011;8704;52.006;4.374;2023-02-28T05:38:48;13.85;;;10.52;;
17177;SDS011;8704;52.006;4.374;2023-02-28T05:41:17;13.45;;;9.80;;
17177;SDS011;8704;52.006;4.374;2023-02-28T05:43:46;11.85;;;10.10;;
17177;SDS011;8704;52.006;4.374;2023-02-28T05:46:16;14.13;;;9.43;;
17177;SDS011;8704;52.006;4.374;2023-02-28T05:48:45;11.93;;;9.57;;
17177;SDS011;8704;52.006;4.374;2023-02-28T05:51:15;12.35;;;9.45;;
17177;SDS011;8704;52.006;4.374;2023-02-28T05:53:43;12.00;;;8.80;;
17177;SDS011;8704;52.006;4.374;2023-02-28T05:56:12;11.30;;;8.95;;
17177;SDS011;8704;52.006;4.374;2023-02-28T05:58:40;12.43;;;8.70;;
17177;SDS011;8704;52.006;4.374;2023-02-28T06:04:00;12.23;;;8.68;;
17177;SDS011;8704;52.006;4.374;2023-02-28T06:06:28;12.20;;;8.85;;
17177;SDS011;8704;52.006;4.374;2023-02-28T06:08:57;14.13;;;9.23;;
17177;SDS011;8704;52.006;4.374;2023-02-28T06:11:25;12.98;;;9.30;;
17177;SDS011;8704;52.006;4.374;2023-02-28T06:13:54;14.05;;;9.43;;
17177;SDS011;8704;52.006;4.374;2023-02-28T06:16:23;11.40;;;9.13;;
17177;SDS011;8704;52.006;4.374;2023-02-28T06:18:53;13.10;;;9.98;;
17177;SDS011;8704;52.006;4.374;2023-02-28T06:21:22;15.02;;;9.57;;
17177;SDS011;8704;52.006;4.374;2023-02-28T06:23:50;13.20;;;9.15;;
17177;SDS011;8704;52.006;4.374;2023-02-28T06:26:19;12.05;;;9.02;;
17177;SDS011;8704;52.006;4.374;2023-02-28T06:28:47;12.85;;;9.07;;
17177;SDS011;8704;52.006;4.374;2023-02-28T06:31:16;14.65;;;9.55;;
17177;SDS011;8704;52.006;4.374;2023-02-28T06:33:45;14.73;;;9.13;;
17177;SDS011;8704;52.006;4.374;2023-02-28T06:36:16;12.45;;;9.07;;
17177;SDS011;8704;52.006;4.374;2023-02-28T06:38:44;14.80;;;9.75;;
17177;SDS011;8704;52.006;4.374;2023-02-28T06:41:17;13.55;;;9.32;;
17177;SDS011;8704;52.006;4.374;2023-02-28T06:43:45;12.30;;;8.90;;
17177;SDS011;8704;52.006;4.374;2023-02-28T06:46:13;14.98;;;9.38;;
17177;SDS011;8704;52.006;4.374;2023-02-28T06:48:42;14.70;;;9.43;;
17177;SDS011;8704;52.006;4.374;2023-02-28T06:51:12;13.70;;;8.07;;
17177;SDS011;8704;52.006;4.374;2023-02-28T06:53:42;12.60;;;8.38;;
17177;SDS011;8704;52.006;4.374;2023-02-28T06:56:11;11.27;;;8.48;;
17177;SDS011;8704;52.006;4.374;2023-02-28T06:58:40;11.32;;;7.85;;
17177;SDS011;8704;52.006;4.374;2023-02-28T07:01:08;9.48;;;7.35;;
17177;SDS011;8704;52.006;4.374;2023-02-28T07:03:36;11.77;;;7.70;;
17177;SDS011;8704;52.006;4.374;2023-02-28T07:06:05;9.18;;;7.10;;
17177;SDS011;8704;52.006;4.374;2023-02-28T07:08:33;9.50;;;6.55;;
17177;SDS011;8704;52.006;4.374;2023-02-28T07:11:03;10.32;;;6.93;;
17177;SDS011;8704;52.006;4.374;2023-02-28T07:13:31;10.32;;;6.93;;
17177;SDS011;8704;52.006;4.374;2023-02-28T07:16:00;8.65;;;6.13;;
17177;SDS011;8704;52.006;4.374;2023-02-28T07:18:30;7.55;;;5.97;;
17177;SDS011;8704;52.006;4.374;2023-02-28T07:21:01;8.43;;;5.20;;
17177;SDS011;8704;52.006;4.374;2023-02-28T07:23:30;8.10;;;5.72;;
17177;SDS011;8704;52.006;4.374;2023-02-28T07:25:58;8.65;;;5.20;;
17177;SDS011;8704;52.006;4.374;2023-02-28T07:28:28;8.40;;;4.63;;
17177;SDS011;8704;52.006;4.374;2023-02-28T07:30:56;10.13;;;4.80;;
17177;SDS011;8704;52.006;4.374;2023-02-28T07:33:24;9.00;;;4.68;;
17177;SDS011;8704;52.006;4.374;2023-02-28T07:35:56;8.18;;;5.30;;
17177;SDS011;8704;52.006;4.374;2023-02-28T07:38:27;9.07;;;5.85;;
17177;SDS011;8704;52.006;4.374;2023-02-28T07:40:55;6.78;;;4.97;;
17177;SDS011;8704;52.006;4.374;2023-02-28T07:43:23;8.23;;;5.63;;
17177;SDS011;8704;52.006;4.374;2023-02-28T07:45:53;8.93;;;6.10;;
17177;SDS011;8704;52.006;4.374;2023-02-28T07:48:21;8.10;;;5.82;;
17177;SDS011;8704;52.006;4.374;2023-02-28T07:50:53;7.35;;;6.18;;
17177;SDS011;8704;52.006;4.374;2023-02-28T07:53:22;8.35;;;6.43;;
17177;SDS011;8704;52.006;4.374;2023-02-28T07:55:50;8.27;;;6.30;;
17177;SDS011;8704;52.006;4.374;2023-02-28T07:58:22;7.80;;;6.40;;
17177;SDS011;8704;52.006;4.374;2023-02-28T08:00:50;9.15;;;7.30;;
17177;SDS011;8704;52.006;4.374;2023-02-28T08:03:20;8.65;;;7.72;;
17177;SDS011;8704;52.006;4.374;2023-02-28T08:05:49;10.95;;;6.93;;
17177;SDS011;8704;52.006;4.374;2023-02-28T08:08:18;8.93;;;7.35;;
17177;SDS011;8704;52.006;4.374;2023-02-28T08:10:46;9.23;;;7.20;;
17177;SDS011;8704;52.006;4.374;2023-02-28T08:13:14;9.02;;;7.88;;
17177;SDS011;8704;52.006;4.374;2023-02-28T08:15:42;10.10;;;8.20;;
17177;SDS011;8704;52.006;4.374;2023-02-28T08:18:12;10.05;;;7.65;;
17177;SDS011;8704;52.006;4.374;2023-02-28T08:20:41;9.80;;;7.57;;
17177;SDS011;8704;52.006;4.374;2023-02-28T08:23:09;8.60;;;7.70;;
17177;SDS011;8704;52.006;4.374;2023-02-28T08:25:37;9.82;;;8.05;;
17177;SDS011;8704;52.006;4.374;2023-02-28T08:28:05;11.98;;;8.45;;
17177;SDS011;8704;52.006;4.374;2023-02-28T08:30:33;11.00;;;7.80;;
17177;SDS011;8704;52.006;4.374;2023-02-28T08:33:01;9.20;;;8.18;;
17177;SDS011;8704;52.006;4.374;2023-02-28T08:35:30;11.25;;;9.93;;
17177;SDS011;8704;52.006;4.374;2023-02-28T08:37:58;12.05;;;10.77;;
17177;SDS011;8704;52.006;4.374;2023-02-28T08:40:26;10.68;;;9.63;;
17177;SDS011;8704;52.006;4.374;2023-02-28T08:42:54;11.38;;;8.10;;
17177;SDS011;8704;52.006;4.374;2023-02-28T08:45:22;10.90;;;8.68;;
17177;SDS011;8704;52.006;4.374;2023-02-28T08:47:50;9.18;;;8.30;;
17177;SDS011;8704;52.006;4.374;2023-02-28T08:50:19;11.63;;;9.25;;
17177;SDS011;8704;52.006;4.374;2023-02-28T08:52:49;10.70;;;9.02;;
17177;SDS011;8704;52.006;4.374;2023-02-28T08:55:17;11.77;;;9.60;;
17177;SDS011;8704;52.006;4.374;2023-02-28T08:57:45;10.68;;;9.68;;
17177;SDS011;8704;52.006;4.374;2023-02-28T09:00:13;10.27;;;9.27;;
17177;SDS011;8704;52.006;4.374;2023-02-28T09:02:41;11.20;;;10.18;;
17177;SDS011;8704;52.006;4.374;2023-02-28T09:05:09;13.07;;;11.88;;
17177;SDS011;8704;52.006;4.374;2023-02-28T09:07:37;12.15;;;10.95;;
17177;SDS011;8704;52.006;4.374;2023-02-28T09:10:08;13.02;;;11.77;;
17177;SDS011;8704;52.006;4.374;2023-02-28T09:12:36;13.57;;;12.48;;
17177;SDS011;8704;52.006;4.374;2023-02-28T09:15:05;11.88;;;10.88;;
17177;SDS011;8704;52.006;4.374;2023-02-28T09:17:34;12.05;;;10.13;;
17177;SDS011;8704;52.006;4.374;2023-02-28T09:20:02;11.45;;;9.73;;
17177;SDS011;8704;52.006;4.374;2023-02-28T09:22:31;10.00;;;9.00;;
17177;SDS011;8704;52.006;4.374;2023-02-28T09:24:59;10.27;;;9.23;;
17177;SDS011;8704;52.006;4.374;2023-02-28T09:27:28;11.90;;;9.23;;
17177;SDS011;8704;52.006;4.374;2023-02-28T09:29:57;9.43;;;8.50;;
17177;SDS011;8704;52.006;4.374;2023-02-28T09:32:24;12.13;;;8.60;;
17177;SDS011;8704;52.006;4.374;2023-02-28T09:34:53;8.93;;;8.02;;
17177;SDS011;8704;52.006;4.374;2023-02-28T09:37:21;9.90;;;8.98;;
17177;SDS011;8704;52.006;4.374;2023-02-28T09:39:49;10.40;;;9.13;;
17177;SDS011;8704;52.006;4.374;2023-02-28T09:42:18;11.88;;;10.77;;
17177;SDS011;8704;52.006;4.374;2023-02-28T09:44:52;12.25;;;10.35;;
17177;SDS011;8704;52.006;4.374;2023-02-28T09:47:23;8.82;;;7.95;;
17177;SDS011;8704;52.006;4.374;2023-02-28T09:49:56;9.38;;;7.90;;
17177;SDS011;8704;52.006;4.374;2023-02-28T09:52:31;9.10;;;8.20;;
17177;SDS011;8704;52.006;4.374;2023-02-28T09:55:00;9.25;;;8.32;;
17177;SDS011;8704;52.006;4.374;2023-02-28T09:57:44;8.57;;;7.60;;
17177;SDS011;8704;52.006;4.374;2023-02-28T10:00:15;7.88;;;6.97;;
17177;SDS011;8704;52.006;4.374;2023-02-28T10:02:49;8.60;;;7.72;;
17177;SDS011;8704;52.006;4.374;2023-02-28T10:05:24;9.48;;;8.57;;
17177;SDS011;8704;52.006;4.374;2023-02-28T10:07:59;10.73;;;9.52;;
17177;SDS011;8704;52.006;4.374;2023-02-28T10:10:33;7.00;;;6.30;;
17177;SDS011;8704;52.006;4.374;2023-02-28T10:13:06;7.05;;;5.28;;
17177;SDS011;8704;52.006;4.374;2023-02-28T10:15:43;8.55;;;5.57;;
17177;SDS011;8704;52.006;4.374;2023-02-28T10:18:15;8.90;;;5.07;;
17177;SDS011;8704;52.006;4.374;2023-02-28T10:20:48;7.50;;;4.20;;
17177;SDS011;8704;52.006;4.374;2023-02-28T10:23:20;5.28;;;4.30;;
17177;SDS011;8704;52.006;4.374;2023-02-28T10:25:53;6.57;;;4.13;;
17177;SDS011;8704;52.006;4.374;2023-02-28T10:28:24;7.85;;;5.13;;
17177;SDS011;8704;52.006;4.374;2023-02-28T10:33:28;8.32;;;4.80;;
17177;SDS011;8704;52.006;4.374;2023-02-28T10:35:57;5.88;;;3.90;;
17177;SDS011;8704;52.006;4.374;2023-02-28T10:38:27;8.32;;;4.57;;
17177;SDS011;8704;52.006;4.374;2023-02-28T10:41:03;5.35;;;4.10;;
17177;SDS011;8704;52.006;4.374;2023-02-28T10:43:32;6.45;;;3.85;;
17177;SDS011;8704;52.006;4.374;2023-02-28T10:46:03;5.72;;;3.90;;
17177;SDS011;8704;52.006;4.374;2023-02-28T10:48:39;5.82;;;3.83;;
17177;SDS011;8704;52.006;4.374;2023-02-28T10:51:10;8.35;;;3.70;;
17177;SDS011;8704;52.006;4.374;2023-02-28T10:53:39;6.50;;;4.13;;
17177;SDS011;8704;52.006;4.374;2023-02-28T10:56:27;6.15;;;3.95;;
17177;SDS011;8704;52.006;4.374;2023-02-28T10:58:57;5.18;;;3.75;;
17177;SDS011;8704;52.006;4.374;2023-02-28T11:01:35;6.07;;;3.03;;
17177;SDS011;8704;52.006;4.374;2023-02-28T11:04:16;6.88;;;3.38;;
17177;SDS011;8704;52.006;4.374;2023-02-28T11:06:46;5.72;;;3.08;;
17177;SDS011;8704;52.006;4.374;2023-02-28T11:09:18;4.50;;;2.72;;
17177;SDS011;8704;52.006;4.374;2023-02-28T11:11:50;4.57;;;3.38;;
17177;SDS011;8704;52.006;4.374;2023-02-28T11:14:20;6.20;;;2.90;;
17177;SDS011;8704;52.006;4.374;2023-02-28T11:16:51;4.90;;;2.88;;
17177;SDS011;8704;52.006;4.374;2023-02-28T11:19:20;5.03;;;2.53;;
17177;SDS011;8704;52.006;4.374;2023-02-28T11:21:53;6.10;;;2.97;;
17177;SDS011;8704;52.006;4.374;2023-02-28T11:24:24;4.30;;;2.97;;
17177;SDS011;8704;52.006;4.374;2023-02-28T11:26:55;4.18;;;2.58;;
17177;SDS011;8704;52.006;4.374;2023-02-28T11:29:25;3.75;;;2.40;;
17177;SDS011;8704;52.006;4.374;2023-02-28T11:32:07;4.45;;;2.50;;
17177;SDS011;8704;52.006;4.374;2023-02-28T11:34:41;4.25;;;2.70;;
17177;SDS011;8704;52.006;4.374;2023-02-28T11:37:11;4.38;;;2.88;;
17177;SDS011;8704;52.006;4.374;2023-02-28T11:39:41;5.38;;;2.80;;
17177;SDS011;8704;52.006;4.374;2023-02-28T11:42:13;3.70;;;2.45;;
17177;SDS011;8704;52.006;4.374;2023-02-28T11:44:56;3.63;;;2.40;;
17177;SDS011;8704;52.006;4.374;2023-02-28T11:47:38;4.65;;;2.80;;
17177;SDS011;8704;52.006;4.374;2023-02-28T11:50:20;6.20;;;2.70;;
17177;SDS011;8704;52.006;4.374;2023-02-28T11:52:54;5.88;;;3.10;;
17177;SDS011;8704;52.006;4.374;2023-02-28T11:55:25;4.22;;;2.40;;
17177;SDS011;8704;52.006;4.374;2023-02-28T11:58:05;4.00;;;2.65;;
17177;SDS011;8704;52.006;4.374;2023-02-28T12:00:54;4.10;;;2.20;;
17177;SDS011;8704;52.006;4.374;2023-02-28T12:03:38;3.53;;;1.98;;
17177;SDS011;8704;52.006;4.374;2023-02-28T12:06:19;3.55;;;1.95;;
17177;SDS011;8704;52.006;4.374;2023-02-28T12:08:53;3.38;;;1.80;;
17177;SDS011;8704;52.006;4.374;2023-02-28T12:11:40;2.75;;;1.75;;
17177;SDS011;8704;52.006;4.374;2023-02-28T12:14:28;2.75;;;1.90;;
17177;SDS011;8704;52.006;4.374;2023-02-28T12:17:13;3.22;;;1.67;;
17177;SDS011;8704;52.006;4.374;2023-02-28T12:20:05;2.67;;;1.80;;
17177;SDS011;8704;52.006;4.374;2023-02-28T12:22:42;4.47;;;2.38;;
17177;SDS011;8704;52.006;4.374;2023-02-28T12:25:34;3.60;;;2.20;;
17177;SDS011;8704;52.006;4.374;2023-02-28T12:28:26;3.90;;;2.20;;
17177;SDS011;8704;52.006;4.374;2023-02-28T12:30:59;3.47;;;1.90;;
17177;SDS011;8704;52.006;4.374;2023-02-28T12:33:32;3.75;;;2.17;;
17177;SDS011;8704;52.006;4.374;2023-02-28T12:38:39;3.95;;;1.95;;
17177;SDS011;8704;52.006;4.374;2023-02-28T12:41:12;4.03;;;2.25;;
17177;SDS011;8704;52.006;4.374;2023-02-28T12:43:44;4.50;;;2.20;;
17177;SDS011;8704;52.006;4.374;2023-02-28T12:46:15;4.18;;;2.35;;
17177;SDS011;8704;52.006;4.374;2023-02-28T12:48:50;3.58;;;1.90;;
17177;SDS011;8704;52.006;4.374;2023-02-28T12:51:23;2.95;;;2.00;;
17177;SDS011;8704;52.006;4.374;2023-02-28T12:53:56;3.60;;;1.90;;
17177;SDS011;8704;52.006;4.374;2023-02-28T12:56:34;3.65;;;2.20;;
17177;SDS011;8704;52.006;4.374;2023-02-28T12:59:11;4.03;;;2.40;;
17177;SDS011;8704;52.006;4.374;2023-02-28T13:01:50;3.78;;;2.08;;
17177;SDS011;8704;52.006;4.374;2023-02-28T13:10:37;3.30;;;2.22;;
17177;SDS011;8704;52.006;4.374;2023-02-28T13:13:11;4.18;;;2.33;;
17177;SDS011;8704;52.006;4.374;2023-02-28T13:15:56;5.05;;;2.53;;
17177;SDS011;8704;52.006;4.374;2023-02-28T13:18:31;3.38;;;2.35;;
17177;SDS011;8704;52.006;4.374;2023-02-28T13:21:03;3.47;;;2.30;;
17177;SDS011;8704;52.006;4.374;2023-02-28T13:23:38;3.97;;;2.28;;
17177;SDS011;8704;52.006;4.374;2023-02-28T13:26:23;3.03;;;1.90;;
17177;SDS011;8704;52.006;4.374;2023-02-28T13:29:24;3.10;;;2.20;;
17177;SDS011;8704;52.006;4.374;2023-02-28T13:34:49;3.55;;;2.20;;
17177;SDS011;8704;52.006;4.374;2023-02-28T13:38:12;3.10;;;1.90;;
17177;SDS011;8704;52.006;4.374;2023-02-28T13:40:44;4.70;;;2.20;;
17177;SDS011;8704;52.006;4.374;2023-02-28T13:43:12;4.82;;;2.33;;
17177;SDS011;8704;52.006;4.374;2023-02-28T13:46:10;3.47;;;1.90;;
17177;SDS011;8704;52.006;4.374;2023-02-28T13:48:40;3.80;;;1.90;;
17177;SDS011;8704;52.006;4.374;2023-02-28T13:51:28;5.00;;;2.10;;
17177;SDS011;8704;52.006;4.374;2023-02-28T13:54:22;3.80;;;2.10;;
17177;SDS011;8704;52.006;4.374;2023-02-28T13:57:03;3.88;;;2.08;;
17177;SDS011;8704;52.006;4.374;2023-02-28T13:59:43;3.42;;;2.20;;
17177;SDS011;8704;52.006;4.374;2023-02-28T14:02:28;3.70;;;2.30;;
17177;SDS011;8704;52.006;4.374;2023-02-28T14:05:17;4.63;;;2.20;;
17177;SDS011;8704;52.006;4.374;2023-02-28T14:07:48;3.90;;;2.50;;
17177;SDS011;8704;52.006;4.374;2023-02-28T14:10:27;4.20;;;2.22;;
17177;SDS011;8704;52.006;4.374;2023-02-28T14:13:03;4.65;;;2.03;;
17177;SDS011;8704;52.006;4.374;2023-02-28T14:15:46;4.28;;;2.30;;
17177;SDS011;8704;52.006;4.374;2023-02-28T14:18:21;4.53;;;2.38;;
17177;SDS011;8704;52.006;4.374;2023-02-28T14:20:54;6.55;;;2.40;;
17177;SDS011;8704;52.006;4.374;2023-02-28T14:26:29;3.85;;;2.20;;
17177;SDS011;8704;52.006;4.374;2023-02-28T14:32:21;3.78;;;2.42;;
17177;SDS011;8704;52.006;4.374;2023-02-28T14:34:58;4.40;;;2.42;;
17177;SDS011;8704;52.006;4.374;2023-02-28T14:37:33;4.25;;;2.60;;
17177;SDS011;8704;52.006;4.374;2023-02-28T14:40:11;4.70;;;2.38;;
17177;SDS011;8704;52.006;4.374;2023-02-28T14:42:45;5.43;;;2.70;;
17177;SDS011;8704;52.006;4.374;2023-02-28T14:45:21;3.70;;;2.58;;
17177;SDS011;8704;52.006;4.374;2023-02-28T14:47:50;3.20;;;2.30;;
17177;SDS011;8704;52.006;4.374;2023-02-28T14:50:20;4.05;;;2.20;;
17177;SDS011;8704;52.006;4.374;2023-02-28T14:52:51;3.80;;;2.55;;
17177;SDS011;8704;52.006;4.374;2023-02-28T14:55:23;3.83;;;2.20;;
17177;SDS011;8704;52.006;4.374;2023-02-28T14:57:55;3.90;;;2.28;;
17177;SDS011;8704;52.006;4.374;2023-02-28T15:00:25;4.93;;;2.60;;
17177;SDS011;8704;52.006;4.374;2023-02-28T15:02:56;3.20;;;2.20;;
17177;SDS011;8704;52.006;4.374;2023-02-28T15:05:26;4.32;;;2.20;;
17177;SDS011;8704;52.006;4.374;2023-02-28T15:08:04;5.10;;;2.30;;
17177;SDS011;8704;52.006;4.374;2023-02-28T15:10:37;3.42;;;2.15;;
17177;SDS011;8704;52.006;4.374;2023-02-28T15:13:10;3.97;;;2.10;;
17177;SDS011;8704;52.006;4.374;2023-02-28T15:15:45;4.35;;;2.20;;
17177;SDS011;8704;52.006;4.374;2023-02-28T15:18:32;3.95;;;2.25;;
17177;SDS011;8704;52.006;4.374;2023-02-28T15:21:06;4.07;;;2.30;;
17177;SDS011;8704;52.006;4.374;2023-02-28T15:23:36;3.17;;;2.13;;
17177;SDS011;8704;52.006;4.374;2023-02-28T15:26:04;3.85;;;2.28;;
17177;SDS011;8704;52.006;4.374;2023-02-28T15:28:34;4.70;;;2.17;;
17177;SDS011;8704;52.006;4.374;2023-02-28T15:31:03;3.65;;;2.13;;
17177;SDS011;8704;52.006;4.374;2023-02-28T15:33:54;2.67;;;1.98;;
17177;SDS011;8704;52.006;4.374;2023-02-28T15:36:25;3.03;;;2.00;;
17177;SDS011;8704;52.006;4.374;2023-02-28T15:38:56;5.30;;;2.40;;
17177;SDS011;8704;52.006;4.374;2023-02-28T15:41:40;4.25;;;2.20;;
17177;SDS011;8704;52.006;4.374;2023-02-28T15:44:25;3.28;;;1.90;;
17177;SDS011;8704;52.006;4.374;2023-02-28T15:46:57;4.47;;;2.13;;
17177;SDS011;8704;52.006;4.374;2023-02-28T15:49:29;3.45;;;2.20;;
17177;SDS011;8704;52.006;4.374;2023-02-28T15:52:10;4.20;;;2.30;;
17177;SDS011;8704;52.006;4.374;2023-02-28T15:54:43;4.40;;;1.95;;
17177;SDS011;8704;52.006;4.374;2023-02-28T15:57:13;3.03;;;1.90;;